Cambridge, United Kingdom

3:50 AM BST on July 28, 2015 (GMT +0100)
ICAMBRID5 | | Change Station
CLOSE
Current Station
Personal Weather Station
Location: Cambridge, UK
Elevation: 50 ft
Nearby Weather Stations

Elev 50 ft 52.23 °N, 0.13 °E | Updated 5 minutes ago

Overcast
Overcast
60.4 °F
Feels Like 60.4 °F
N
6.3
Wind Variable Wind from WSW
Gusts 11.0 mph

Today
High -- | Low -- °F
--% Chance of Precip.
Yesterday
High -- | Low -- °F
Precip. -- in
5:13 AM 8:57 PM
Waxing Gibbous, 86% visible
Pressure 29.59 in
Visibility 6.2 miles
Clouds Mostly Cloudy 1700 ft
Mostly Cloudy 2200 ft
Overcast 3700 ft
Dew Point 53 °F
Humidity 76%
Rainfall 0.00 in
Snow Depth Not available.
UV 0 out of 12
Pollen Not available.
Air Quality Not available.
Flu Activity Not available.
METAR EGSS 280220Z 24011KT 9999 BKN017 BKN022 OVC037 14/11 Q1002

More Conditions Fewer Conditions

Pressure 29.59 in
Visibility 6.2 miles
Clouds Mostly Cloudy 1700 ft
Mostly Cloudy 2200 ft
Overcast 3700 ft
Dew Point 53 °F
Humidity 76%
Rainfall 0.00 in
Snow Depth Not available.
UV 0 out of 12
Pollen Not available.
Air Quality Not available.
Flu Activity Not available.
METAR EGSS 280220Z 24011KT 9999 BKN017 BKN022 OVC037 14/11 Q1002

More Conditions Fewer Conditions

10-Day Weather Forecast

×

Almanac

Astronomy

Jul. 28, 2015 Rise Set
Actual Time
Civil Twilight
Nautical Twilight
Astronomical Twilight
Moon
Length of Visible Light
Length of Day
Tomorrow will be .
, % of the Moon is Illuminated

Today's Extremes

Country Highs Country Lows

Community

WunderPhotos

Upload Photos

1,841,777 photos uploaded!

WunderBlogs® & News

Nearby

Air Quality

  Air Quality AQ Index Pollutant
Not available.

Snow Depth

Station Depth Elevation

Earthquake Activity

City Distance Mag. Time & Date
Minimum magnitude displayed is 2.5.

Coastal Water Temperatures

Place Temperature

Stations

Nearby Weather Stations

Station Location Temp. Windchill Dew Point Humidity Wind Precip. Elev Updated Type